Time;durP1;ratioP1;P1;durP2;ratioP2;P2;SDS_P1;SDS_P2;PMS_P1;PMS_P2;Temp;Humidity;BMP_temperature;BMP_pressure;BME280_temperature;BME280_humidity;BME280_pressure;Samples;Min_cycle;Max_cycle;Signal;HPM_P1;HPM_P2
2023/06/23 00:01:05;;;;;;;7.88;4.28;;;;;;;18.72;92.43;99715.53;4987569;28;20045;-73
2023/06/23 00:03:33;;;;;;;7.28;3.67;;;;;;;18.28;94.42;99721.75;4988792;28;20489;-74
2023/06/23 00:06:00;;;;;;;8.48;4.78;;;;;;;18.42;95.09;99718.88;4986841;28;20476;-73
2023/06/23 00:08:25;;;;;;;8.13;4.78;;;;;;;18.55;93.51;99731.75;4986810;28;20073;-73
2023/06/23 00:10:51;;;;;;;7.82;5.25;;;;;;;18.47;94.26;99754.59;4986791;28;20048;-72
2023/06/23 00:13:19;;;;;;;6.00;3.97;;;;;;;18.61;93.58;99750.94;4986582;28;20034;-73
2023/06/23 00:15:44;;;;;;;6.10;4.00;;;;;;;18.53;92.65;99760.81;4988146;28;20531;-73
2023/06/23 00:18:10;;;;;;;6.70;4.67;;;;;;;18.60;92.06;99766.69;4990336;28;20080;-76
2023/06/23 00:20:36;;;;;;;6.47;4.38;;;;;;;18.39;93.32;99772.75;4990674;28;20343;-74
2023/06/23 00:23:01;;;;;;;6.93;4.45;;;;;;;18.54;92.04;99768.78;4991440;28;20117;-74
2023/06/23 00:25:27;;;;;;;7.90;5.78;;;;;;;18.49;92.11;99779.94;4992176;28;20161;-75
2023/06/23 00:27:52;;;;;;;6.90;4.18;;;;;;;18.50;92.09;99792.63;4990628;28;20038;-73
2023/06/23 00:30:18;;;;;;;8.02;4.50;;;;;;;18.84;91.28;99797.75;4990917;28;20041;-76
2023/06/23 00:32:43;;;;;;;8.07;5.67;;;;;;;18.73;90.93;99817.38;4990856;28;20038;-74
2023/06/23 00:35:09;;;;;;;8.05;5.40;;;;;;;18.72;91.23;99831.50;4991501;28;20263;-74
2023/06/23 00:37:37;;;;;;;10.23;5.57;;;;;;;18.72;91.03;99835.09;4990503;28;20041;-74
2023/06/23 00:40:04;;;;;;;7.30;5.00;;;;;;;18.92;90.06;99845.88;4990182;28;20026;-73
2023/06/23 00:42:30;;;;;;;9.52;6.10;;;;;;;18.92;90.63;99857.75;4991266;28;20447;-76
2023/06/23 00:44:55;;;;;;;11.98;6.72;;;;;;;18.84;90.18;99869.56;4990960;28;20022;-74
2023/06/23 00:47:20;;;;;;;9.17;6.20;;;;;;;18.81;89.24;99868.28;4991070;28;20165;-73
2023/06/23 00:49:45;;;;;;;8.37;5.23;;;;;;;18.91;89.52;99883.75;4991188;28;20264;-74
2023/06/23 00:52:11;;;;;;;8.98;5.97;;;;;;;18.84;88.08;99886.97;4990919;28;20779;-75
2023/06/23 00:54:36;;;;;;;11.98;6.38;;;;;;;18.42;88.99;99887.22;4991488;28;20030;-74
2023/06/23 00:57:02;;;;;;;10.48;6.32;;;;;;;18.65;90.14;99887.19;4991073;28;20121;-77
2023/06/23 00:59:28;;;;;;;9.25;6.25;;;;;;;18.87;89.33;99888.28;4991681;28;20042;-75
2023/06/23 01:01:58;;;;;;;9.32;6.15;;;;;;;18.81;88.29;99884.03;4993581;28;20034;-82
2023/06/23 01:04:28;;;;;;;8.98;6.57;;;;;;;18.78;88.80;99891.81;4993085;28;20121;-82
2023/06/23 01:07:16;;;;;;;10.23;5.82;;;;;;;18.55;89.91;99897.38;4992815;28;20030;-83
2023/06/23 01:09:54;;;;;;;8.02;5.78;;;;;;;18.83;89.06;99901.09;4991580;28;20030;-83
2023/06/23 01:12:24;;;;;;;9.95;7.35;;;;;;;18.75;87.91;99905.44;4993718;28;20072;-83
2023/06/23 01:15:02;;;;;;;10.30;6.28;;;;;;;18.65;88.23;99909.28;4993258;28;20033;-83
2023/06/23 01:17:36;;;;;;;11.80;7.13;;;;;;;18.61;89.67;99905.53;4992364;28;20073;-83
2023/06/23 01:20:21;;;;;;;11.30;6.65;;;;;;;18.83;88.31;99910.19;4992956;28;20046;-82
2023/06/23 01:23:14;;;;;;;10.75;7.15;;;;;;;18.81;87.29;99914.41;4993140;28;20122;-82
2023/06/23 01:25:53;;;;;;;9.48;6.20;;;;;;;19.05;86.90;99915.97;4992835;28;20049;-83
2023/06/23 01:28:18;;;;;;;8.57;6.25;;;;;;;18.91;85.92;99922.41;4991941;28;20030;-83
2023/06/23 01:30:47;;;;;;;12.33;7.33;;;;;;;18.63;88.04;99926.16;4994263;28;20383;-83
2023/06/23 01:33:23;;;;;;;7.20;5.15;;;;;;;18.85;87.56;99926.44;4992538;28;20023;-82
2023/06/23 01:36:00;;;;;;;9.82;6.47;;;;;;;18.80;86.96;99943.94;4993084;28;20693;-82
2023/06/23 01:38:32;;;;;;;9.27;5.55;;;;;;;18.63;88.54;99952.97;4991815;28;20035;-82
2023/06/23 01:40:59;;;;;;;19.90;6.70;;;;;;;18.71;88.57;99946.69;4992372;28;20030;-82
2023/06/23 01:43:31;;;;;;;10.15;6.38;;;;;;;18.66;88.14;99952.31;4993289;28;20022;-83
2023/06/23 01:46:03;;;;;;;11.05;5.72;;;;;;;18.64;88.05;99949.06;4992196;28;20109;-83
2023/06/23 01:48:29;;;;;;;10.38;6.10;;;;;;;18.57;88.31;99943.19;4992017;28;20120;-82
2023/06/23 01:50:55;;;;;;;10.35;6.57;;;;;;;18.67;88.15;99954.75;4991244;28;20415;-82
2023/06/23 01:53:21;;;;;;;9.15;6.57;;;;;;;18.60;89.10;99943.34;4992207;28;20032;-83
2023/06/23 01:55:49;;;;;;;12.25;7.45;;;;;;;18.47;89.12;99942.28;4992181;28;20026;-82
2023/06/23 01:58:15;;;;;;;9.45;6.63;;;;;;;18.62;88.76;99943.84;4991056;28;20076;-81
2023/06/23 02:00:42;;;;;;;18.30;7.93;;;;;;;18.52;88.98;99949.63;4991465;28;20061;-83
2023/06/23 02:03:08;;;;;;;10.35;6.55;;;;;;;18.57;89.13;99948.69;4991593;28;20030;-82
2023/06/23 02:05:36;;;;;;;12.15;6.80;;;;;;;18.44;88.30;99953.97;4991581;28;20022;-82
2023/06/23 02:08:02;;;;;;;10.38;6.28;;;;;;;18.52;89.08;99952.41;4991628;28;20023;-82
2023/06/23 02:10:28;;;;;;;9.93;5.93;;;;;;;18.41;89.20;99962.84;4990933;28;20031;-82
2023/06/23 02:12:54;;;;;;;12.00;7.75;;;;;;;18.33;89.83;99961.66;4991553;28;20030;-83
2023/06/23 02:15:22;;;;;;;10.05;6.57;;;;;;;18.50;89.81;99961.00;4991759;28;20109;-73
2023/06/23 02:17:49;;;;;;;13.30;8.60;;;;;;;18.47;90.06;99969.88;4989820;28;20469;-75
2023/06/23 02:20:16;;;;;;;11.40;7.47;;;;;;;18.51;89.76;99973.66;4988029;28;20038;-73
2023/06/23 02:22:44;;;;;;;9.77;7.55;;;;;;;18.67;88.94;99981.56;4989491;28;20046;-74
2023/06/23 02:25:11;;;;;;;14.52;8.13;;;;;;;18.74;88.67;99992.16;4989661;28;20488;-75
2023/06/23 02:27:37;;;;;;;12.38;9.15;;;;;;;18.69;88.45;100001.41;4988747;28;20499;-75
2023/06/23 02:30:03;;;;;;;12.50;7.55;;;;;;;18.76;88.68;100006.47;4988387;28;20037;-75
2023/06/23 02:32:29;;;;;;;13.55;7.07;;;;;;;18.70;88.19;99997.50;4988928;28;20846;-74
2023/06/23 02:34:54;;;;;;;10.13;6.95;;;;;;;18.50;88.92;100007.91;4989287;28;20376;-75
2023/06/23 02:37:23;;;;;;;12.90;6.87;;;;;;;18.45;89.36;100012.75;4991807;28;20084;-73
2023/06/23 02:39:57;;;;;;;12.68;6.60;;;;;;;18.57;89.56;100015.75;4990341;28;20271;-73
2023/06/23 02:42:25;;;;;;;;;;;;;;;18.63;89.05;100020.00;4991875;28;20113;-73
2023/06/23 02:44:59;;;;;;;13.10;6.72;;;;;;;18.72;88.39;100031.13;4990773;28;19910;-73
2023/06/23 02:47:27;;;;;;;12.45;7.25;;;;;;;18.62;88.87;100032.19;4990676;28;20046;-74
2023/06/23 02:49:56;;;;;;;12.80;7.43;;;;;;;18.63;89.29;100041.31;4992216;28;20038;-73
2023/06/23 02:52:27;;;;;;;11.60;7.30;;;;;;;18.54;89.24;100044.00;4989056;28;20053;-75
2023/06/23 02:54:55;;;;;;;15.10;7.30;;;;;;;18.50;88.98;100041.03;4989422;28;20026;-74
2023/06/23 02:57:22;;;;;;;9.57;5.88;;;;;;;18.36;88.97;100043.03;4991187;28;20030;-73
2023/06/23 02:59:51;;;;;;;12.10;7.20;;;;;;;18.65;88.86;100041.81;4990551;28;20169;-73
2023/06/23 03:02:22;;;;;;;11.43;7.53;;;;;;;18.83;87.47;100050.22;4990553;28;21224;-75
2023/06/23 03:04:48;;;;;;;10.88;6.65;;;;;;;18.73;87.84;100057.59;4990927;28;20030;-73
2023/06/23 03:07:14;;;;;;;9.82;6.22;;;;;;;18.72;87.93;100060.69;4990329;28;20041;-74
2023/06/23 03:09:40;;;;;;;10.18;5.97;;;;;;;18.57;88.29;100059.91;4990455;28;20030;-74
2023/06/23 03:12:05;;;;;;;18.73;6.75;;;;;;;18.33;88.95;100052.72;4989258;28;20710;-74
2023/06/23 03:14:31;;;;;;;11.55;7.13;;;;;;;18.23;89.25;100066.75;4990834;28;20037;-74
2023/06/23 03:17:01;;;;;;;14.83;7.57;;;;;;;18.38;89.58;100079.41;4989630;28;20023;-74
2023/06/23 03:19:40;;;;;;;12.40;6.50;;;;;;;18.42;89.42;100077.66;4990378;28;20299;-73
2023/06/23 03:22:21;;;;;;;13.82;8.23;;;;;;;18.35;89.56;100080.84;4990661;28;20034;-73
2023/06/23 03:24:54;;;;;;;11.02;7.78;;;;;;;18.51;89.15;100089.59;4989183;28;20030;-74
2023/06/23 03:27:22;;;;;;;9.90;6.25;;;;;;;18.64;88.92;100090.69;4996431;28;20036;-73
2023/06/23 03:29:52;;;;;;;16.25;8.85;;;;;;;18.68;88.19;100096.41;4990422;28;20049;-73
2023/06/23 03:32:25;;;;;;;13.63;9.60;;;;;;;18.62;88.41;100101.22;4990784;28;20023;-74
2023/06/23 03:34:58;;;;;;;10.48;7.05;;;;;;;18.50;87.81;100110.06;4987465;28;20033;-74
2023/06/23 03:37:26;;;;;;;;;;;;;;;18.40;88.41;100115.78;4991322;28;20018;-74
2023/06/23 03:39:57;;;;;;;13.25;9.75;;;;;;;18.47;89.49;100116.19;4990451;28;19914;-73
2023/06/23 03:42:23;;;;;;;12.63;8.30;;;;;;;18.45;88.66;100121.19;4990707;28;20038;-73
2023/06/23 03:44:52;;;;;;;11.43;7.88;;;;;;;18.43;89.64;100123.44;4990400;28;21154;-76
2023/06/23 03:47:20;;;;;;;13.43;9.52;;;;;;;18.49;89.43;100127.72;4990908;28;20027;-74
2023/06/23 03:49:51;;;;;;;19.20;10.48;;;;;;;18.48;89.91;100134.38;4989801;28;20030;-74
2023/06/23 03:52:17;;;;;;;13.32;9.05;;;;;;;18.50;89.27;100134.91;4991327;28;20411;-73
2023/06/23 03:54:44;;;;;;;18.92;10.38;;;;;;;18.57;89.61;100131.69;4993828;28;20444;-74
2023/06/23 03:57:16;;;;;;;18.65;10.50;;;;;;;18.65;89.26;100143.97;4993375;28;20022;-73
2023/06/23 03:59:44;;;;;;;17.17;10.63;;;;;;;18.69;89.07;100142.22;4992651;28;20403;-74
2023/06/23 04:02:12;;;;;;;18.17;12.00;;;;;;;18.76;88.13;100148.13;4991902;28;20033;-74
2023/06/23 04:04:41;;;;;;;14.85;9.73;;;;;;;18.76;87.99;100150.06;4988181;28;20026;-74
2023/06/23 04:07:09;;;;;;;16.58;10.23;;;;;;;18.88;86.83;100152.28;4993597;28;20050;-74
2023/06/23 04:09:36;;;;;;;16.60;10.10;;;;;;;18.89;87.72;100154.75;4993133;28;20424;-74
2023/06/23 04:12:04;;;;;;;16.60;9.38;;;;;;;18.84;86.31;100156.78;4993413;28;20027;-74
2023/06/23 04:14:32;;;;;;;16.85;10.35;;;;;;;18.73;88.28;100170.03;4994072;28;20023;-74
2023/06/23 04:16:59;;;;;;;15.70;10.68;;;;;;;18.72;87.98;100163.69;4993490;28;20081;-73
2023/06/23 04:19:29;;;;;;;17.38;10.10;;;;;;;18.78;87.45;100162.44;4993263;28;20668;-74
2023/06/23 04:21:56;;;;;;;16.77;11.32;;;;;;;18.63;88.21;100174.63;4991798;28;21329;-74
2023/06/23 04:24:23;;;;;;;16.38;11.35;;;;;;;18.66;88.68;100170.44;4993977;28;20026;-73
2023/06/23 04:26:54;;;;;;;18.65;11.82;;;;;;;18.82;87.78;100176.44;4993350;28;20464;-74
2023/06/23 04:29:23;;;;;;;16.77;10.50;;;;;;;18.86;87.22;100182.16;4993223;28;20121;-76
2023/06/23 04:31:52;;;;;;;16.73;10.05;;;;;;;18.84;87.57;100198.22;4995920;28;20031;-74
2023/06/23 04:34:18;;;;;;;17.73;11.23;;;;;;;18.93;87.13;100193.59;4993769;28;20113;-73
2023/06/23 04:36:50;;;;;;;18.33;11.45;;;;;;;18.98;87.09;100187.94;5001030;28;20124;-74
2023/06/23 04:39:27;;;;;;;18.17;10.63;;;;;;;18.98;86.40;100192.66;4992915;28;20694;-74
2023/06/23 04:41:57;;;;;;;14.43;10.63;;;;;;;19.09;86.13;100190.47;4992154;28;20038;-74
2023/06/23 04:44:27;;;;;;;15.10;11.07;;;;;;;19.04;86.76;100188.63;4991516;28;20467;-84
2023/06/23 04:46:57;;;;;;;18.17;13.18;;;;;;;18.94;87.17;100200.75;4996299;28;20040;-83
2023/06/23 04:49:25;;;;;;;15.23;10.13;;;;;;;18.92;86.69;100213.22;4995690;28;20488;-83
2023/06/23 04:51:53;;;;;;;20.88;13.57;;;;;;;18.73;87.80;100217.75;4993069;28;20412;-83
2023/06/23 04:54:24;;;;;;;16.10;10.45;;;;;;;18.88;87.63;100215.81;4993147;28;20026;-83
2023/06/23 04:56:51;;;;;;;19.48;12.55;;;;;;;18.97;87.70;100216.72;4993307;28;20034;-83
2023/06/23 04:59:20;;;;;;;18.67;12.80;;;;;;;18.77;88.02;100218.78;4995393;28;20753;-83
2023/06/23 05:01:46;;;;;;;21.55;11.35;;;;;;;18.97;87.94;100216.72;4995550;28;20033;-83
2023/06/23 05:04:14;;;;;;;21.17;13.20;;;;;;;18.97;87.58;100224.19;4995742;28;20037;-82
2023/06/23 05:06:41;;;;;;;18.70;12.90;;;;;;;18.92;87.80;100227.88;4995380;28;20031;-83
2023/06/23 05:09:08;;;;;;;21.52;12.32;;;;;;;18.92;87.76;100236.16;4995619;28;20065;-83
2023/06/23 05:11:35;;;;;;;19.98;14.55;;;;;;;18.96;87.79;100236.34;4995102;28;20022;-82
2023/06/23 05:14:02;;;;;;;20.05;13.43;;;;;;;18.89;87.55;100231.25;4995268;28;20521;-83
2023/06/23 05:16:27;;;;;;;22.63;16.15;;;;;;;19.04;87.01;100243.09;4995834;28;20026;-83
2023/06/23 05:18:53;;;;;;;19.30;13.77;;;;;;;18.89;87.64;100240.38;4996688;28;20041;-83
2023/06/23 05:21:21;;;;;;;21.10;14.55;;;;;;;18.94;87.35;100244.94;4995533;28;20252;-83
2023/06/23 05:23:50;;;;;;;21.02;14.25;;;;;;;19.05;86.49;100245.53;4995765;28;20089;-83
2023/06/23 05:26:16;;;;;;;20.13;15.38;;;;;;;18.93;87.08;100254.38;4992684;28;20033;-83
2023/06/23 05:28:43;;;;;;;20.25;14.45;;;;;;;19.01;87.17;100258.34;4995062;28;20388;-82
2023/06/23 05:31:09;;;;;;;20.45;14.20;;;;;;;19.02;87.06;100263.56;4994793;28;20109;-83
2023/06/23 05:33:37;;;;;;;23.02;16.17;;;;;;;19.20;86.15;100269.25;4995148;28;20030;-82
2023/06/23 05:36:07;;;;;;;23.77;15.20;;;;;;;19.28;85.92;100270.50;4994878;28;20034;-83
2023/06/23 05:38:35;;;;;;;24.48;14.77;;;;;;;19.14;86.13;100270.50;4986396;28;20058;-82
2023/06/23 05:41:00;;;;;;;19.67;14.63;;;;;;;19.27;85.85;100284.59;4995078;28;20022;-83
2023/06/23 05:43:26;;;;;;;18.80;14.70;;;;;;;19.27;85.81;100290.97;4998640;28;20057;-83
2023/06/23 05:45:53;;;;;;;24.03;15.70;;;;;;;19.22;85.85;100289.13;4990247;28;20260;-73
2023/06/23 05:48:34;;;;;;;28.70;16.67;;;;;;;19.19;85.79;100287.00;4991429;28;20315;-74
2023/06/23 05:51:03;;;;;;;23.88;16.15;;;;;;;19.00;86.15;100296.19;4991314;28;20062;-73
2023/06/23 05:53:30;;;;;;;22.92;16.40;;;;;;;19.25;85.08;100294.03;4991200;28;20415;-74
2023/06/23 05:56:04;;;;;;;19.13;13.43;;;;;;;19.35;85.18;100292.16;4993323;28;20464;-83
2023/06/23 05:58:33;;;;;;;22.08;15.52;;;;;;;19.22;85.77;100296.63;4992272;28;20070;-82
2023/06/23 06:01:02;;;;;;;22.63;16.50;;;;;;;19.33;85.34;100295.25;4994060;28;20503;-82
2023/06/23 06:03:37;;;;;;;21.90;16.60;;;;;;;19.32;85.34;100303.84;4994628;28;20026;-83
2023/06/23 06:06:05;;;;;;;23.55;15.88;;;;;;;19.38;85.63;100308.13;4994874;28;20029;-82
2023/06/23 06:08:32;;;;;;;21.10;15.52;;;;;;;19.46;85.20;100309.34;4994520;28;20412;-83
2023/06/23 06:10:58;;;;;;;25.38;16.58;;;;;;;19.44;85.32;100315.19;4993601;28;20033;-83
2023/06/23 06:13:24;;;;;;;20.67;14.52;;;;;;;19.58;84.55;100311.53;4994784;28;21235;-83
2023/06/23 06:15:51;;;;;;;22.40;15.35;;;;;;;19.44;85.00;100306.91;4994501;28;20029;-83
2023/06/23 06:18:18;;;;;;;22.05;15.05;;;;;;;19.53;84.96;100323.53;4991861;28;20030;-83
2023/06/23 06:20:45;;;;;;;18.13;11.88;;;;;;;19.56;84.87;100322.94;4996894;28;20117;-82
2023/06/23 06:23:12;;;;;;;18.88;13.35;;;;;;;19.58;84.42;100328.13;4993186;28;20033;-83
2023/06/23 06:25:41;;;;;;;16.75;11.60;;;;;;;19.57;84.51;100332.03;4991632;28;20061;-82
2023/06/23 06:28:10;;;;;;;20.67;14.05;;;;;;;19.45;84.74;100330.63;4993686;28;20064;-83
2023/06/23 06:30:37;;;;;;;18.10;11.68;;;;;;;19.38;85.66;100330.25;4993339;28;20688;-83
2023/06/23 06:33:03;;;;;;;21.85;12.43;;;;;;;19.32;85.83;100337.81;4993809;28;20042;-83
2023/06/23 06:35:31;;;;;;;17.40;12.13;;;;;;;19.56;85.28;100341.47;4993712;28;20042;-83
2023/06/23 06:37:58;;;;;;;15.75;10.75;;;;;;;19.62;84.77;100345.75;4993950;28;20484;-83
2023/06/23 06:40:26;;;;;;;17.95;11.82;;;;;;;19.68;85.22;100338.97;4994239;28;20077;-83
2023/06/23 06:42:51;;;;;;;17.20;10.85;;;;;;;19.76;85.33;100361.47;4994016;28;20109;-83
2023/06/23 06:45:17;;;;;;;18.15;12.23;;;;;;;19.58;85.25;100350.25;4994944;28;20054;-83
2023/06/23 06:47:44;;;;;;;16.40;10.73;;;;;;;19.71;85.17;100365.97;4994085;28;20594;-83
2023/06/23 06:50:12;;;;;;;16.98;10.55;;;;;;;19.64;85.31;100365.59;4993902;28;20046;-83
2023/06/23 06:52:39;;;;;;;19.10;12.25;;;;;;;19.41;85.87;100362.78;4994020;28;20108;-83
2023/06/23 06:55:04;;;;;;;19.90;12.18;;;;;;;19.59;85.21;100368.47;4991551;28;20030;-83
2023/06/23 06:57:31;;;;;;;24.20;11.95;;;;;;;19.69;85.63;100373.78;4993745;28;20133;-82
2023/06/23 06:59:56;;;;;;;21.48;10.40;;;;;;;19.88;84.09;100386.63;4992211;28;20046;-83
2023/06/23 07:02:21;;;;;;;19.70;12.10;;;;;;;20.01;83.92;100384.13;4993945;28;20045;-83
2023/06/23 07:04:47;;;;;;;13.98;9.82;;;;;;;20.21;83.25;100382.81;4993787;28;20271;-83
2023/06/23 07:07:14;;;;;;;18.67;11.60;;;;;;;19.99;83.26;100387.22;4991167;28;20061;-83
2023/06/23 07:09:39;;;;;;;15.88;10.00;;;;;;;20.11;83.68;100394.97;4989343;28;20034;-83
2023/06/23 07:12:06;;;;;;;15.13;9.63;;;;;;;20.00;83.67;100382.47;4990781;28;20026;-83
2023/06/23 07:14:31;;;;;;;15.15;9.38;;;;;;;20.02;83.52;100403.16;4990021;28;20288;-82
2023/06/23 07:16:56;;;;;;;14.43;8.60;;;;;;;20.08;83.32;100398.34;4988968;28;20084;-83
2023/06/23 07:19:21;;;;;;;15.23;9.63;;;;;;;20.02;83.13;100397.63;4993975;28;20030;-82
2023/06/23 07:21:47;;;;;;;16.70;8.50;;;;;;;20.12;82.83;100402.13;4989435;28;20034;-77
2023/06/23 07:24:12;;;;;;;18.60;9.93;;;;;;;19.97;81.78;100405.25;4984013;28;20114;-77
2023/06/23 07:26:37;;;;;;;14.30;9.20;;;;;;;20.25;82.05;100394.06;4987299;28;20264;-77
2023/06/23 07:29:03;;;;;;;14.43;8.00;;;;;;;20.26;80.82;100413.13;4986856;28;20034;-78
2023/06/23 07:31:30;;;;;;;17.10;9.15;;;;;;;20.22;81.34;100416.88;4987181;28;20264;-77
2023/06/23 07:33:56;;;;;;;17.92;10.25;;;;;;;20.25;80.57;100421.75;4987050;28;20041;-78
2023/06/23 07:36:21;;;;;;;12.95;7.85;;;;;;;20.09;80.67;100424.09;4987644;28;20411;-78
2023/06/23 07:38:46;;;;;;;16.20;7.85;;;;;;;20.04;81.01;100425.81;4986947;28;20077;-78
2023/06/23 07:41:12;;;;;;;19.37;9.60;;;;;;;19.97;81.05;100432.91;4987001;28;20313;-78
2023/06/23 07:43:40;;;;;;;15.47;8.47;;;;;;;20.19;80.85;100434.91;4987843;28;20029;-77
2023/06/23 07:46:06;;;;;;;13.48;7.93;;;;;;;20.03;80.95;100437.19;4986760;28;20770;-78
2023/06/23 07:48:31;;;;;;;11.38;7.35;;;;;;;19.98;80.89;100429.00;4986544;28;20050;-77
2023/06/23 07:50:56;;;;;;;14.50;7.80;;;;;;;20.10;81.34;100437.59;4986413;28;20047;-79
2023/06/23 07:53:22;;;;;;;14.43;6.53;;;;;;;20.22;80.02;100428.72;4987115;28;20041;-78
2023/06/23 07:55:47;;;;;;;9.80;6.32;;;;;;;20.23;79.40;100435.91;4988295;28;20513;-77
2023/06/23 07:58:13;;;;;;;8.47;5.07;;;;;;;20.22;79.09;100439.00;4988294;28;20042;-77
2023/06/23 08:00:39;;;;;;;12.60;6.63;;;;;;;20.34;78.29;100439.25;4988841;28;20039;-79
2023/06/23 08:03:04;;;;;;;9.45;5.13;;;;;;;20.36;78.18;100434.19;4988572;28;20310;-78
2023/06/23 08:05:29;;;;;;;12.43;6.55;;;;;;;20.54;77.24;100442.66;4988145;28;20030;-74
2023/06/23 08:07:55;;;;;;;10.83;5.73;;;;;;;20.54;78.07;100439.88;4987538;28;20034;-73
2023/06/23 08:10:20;;;;;;;20.17;6.40;;;;;;;20.59;77.38;100445.28;4986840;28;20045;-72
2023/06/23 08:12:45;;;;;;;8.17;5.27;;;;;;;20.50;76.39;100444.41;4988228;28;20824;-73
2023/06/23 08:15:10;;;;;;;7.67;4.23;;;;;;;20.57;75.74;100444.75;4987888;28;20283;-78
2023/06/23 08:17:36;;;;;;;8.73;4.80;;;;;;;20.62;75.69;100447.41;4989710;28;20347;-82
2023/06/23 08:20:03;;;;;;;9.48;5.35;;;;;;;20.59;75.07;100461.88;4989028;28;20482;-78
2023/06/23 08:22:28;;;;;;;21.17;6.60;;;;;;;20.74;75.38;100454.31;4987697;28;20094;-78
2023/06/23 08:24:53;;;;;;;12.13;5.77;;;;;;;20.83;74.79;100446.03;4987983;28;20614;-77
2023/06/23 08:27:19;;;;;;;7.05;4.90;;;;;;;20.71;75.55;100466.00;4987863;28;20260;-78
2023/06/23 08:29:44;;;;;;;11.60;5.25;;;;;;;20.80;75.29;100455.00;4987724;28;20038;-77
2023/06/23 08:32:10;;;;;;;13.57;4.85;;;;;;;20.90;74.50;100456.66;4988240;28;20500;-78
2023/06/23 08:34:37;;;;;;;7.45;4.45;;;;;;;21.02;74.96;100464.41;4987415;28;20125;-77
2023/06/23 08:37:02;;;;;;;7.30;3.90;;;;;;;21.02;71.88;100464.41;4987357;28;20037;-77
2023/06/23 08:39:28;;;;;;;6.20;3.20;;;;;;;21.17;71.56;100465.97;4988271;28;20801;-77
2023/06/23 08:41:54;;;;;;;15.40;4.60;;;;;;;21.28;71.88;100472.84;4988051;28;20041;-78
2023/06/23 08:44:24;;;;;;;9.20;4.95;;;;;;;21.43;71.52;100471.59;4987844;28;20252;-79
2023/06/23 08:46:54;;;;;;;7.65;3.65;;;;;;;21.62;71.28;100464.13;4987061;28;20369;-80
2023/06/23 08:49:22;;;;;;;10.30;5.55;;;;;;;21.51;72.61;100478.28;4985477;28;20030;-78
2023/06/23 08:51:48;;;;;;;8.68;4.55;;;;;;;21.56;69.95;100477.34;4985718;28;20053;-76
2023/06/23 08:54:14;;;;;;;9.15;4.85;;;;;;;21.70;69.66;100489.09;4985579;28;20042;-78
2023/06/23 08:56:40;;;;;;;7.10;3.80;;;;;;;21.58;67.86;100480.63;4985678;28;20104;-77
2023/06/23 08:59:05;;;;;;;6.68;3.30;;;;;;;21.72;67.03;100479.66;4984046;28;20979;-78
2023/06/23 09:01:31;;;;;;;7.95;3.05;;;;;;;21.77;66.73;100480.31;4984687;28;20038;-78
2023/06/23 09:03:56;;;;;;;5.37;2.57;;;;;;;21.98;67.45;100490.81;4984130;28;20041;-77
2023/06/23 09:06:21;;;;;;;6.75;2.25;;;;;;;22.20;66.25;100504.84;4984154;28;20404;-79
2023/06/23 09:08:47;;;;;;;4.13;2.05;;;;;;;22.22;64.50;100505.34;4983792;28;20033;-78
2023/06/23 09:11:12;;;;;;;6.32;2.80;;;;;;;22.15;64.76;100494.75;4984298;28;20431;-77
2023/06/23 09:13:41;;;;;;;6.38;3.08;;;;;;;22.10;63.77;100497.66;4985539;28;20040;-78
2023/06/23 09:16:09;;;;;;;9.40;4.15;;;;;;;22.31;63.65;100502.59;4985290;28;20538;-78
2023/06/23 09:18:40;;;;;;;6.00;2.63;;;;;;;22.42;63.85;100506.66;4985573;28;20057;-78
2023/06/23 09:21:06;;;;;;;4.95;2.65;;;;;;;22.23;62.67;100507.78;4985287;28;20483;-78
2023/06/23 09:23:31;;;;;;;7.95;3.72;;;;;;;22.22;63.84;100513.69;4985229;28;20066;-77
2023/06/23 09:25:57;;;;;;;5.25;2.30;;;;;;;22.48;64.06;100510.91;4985063;28;20542;-73
2023/06/23 09:28:35;;;;;;;8.30;3.20;;;;;;;22.74;63.62;100512.84;4984625;28;20068;-74
2023/06/23 09:31:08;;;;;;;6.53;3.08;;;;;;;22.76;63.09;100526.41;4985332;28;20546;-74
2023/06/23 09:33:33;;;;;;;;;;;;;;;22.71;61.63;100530.19;4985760;28;20027;-74
2023/06/23 09:36:04;;;;;;;4.53;2.47;;;;;;;22.54;62.38;100536.53;4984842;28;19959;-73
2023/06/23 09:38:35;;;;;;;9.73;2.95;;;;;;;22.50;61.17;100525.28;4984597;28;20046;-74
2023/06/23 09:41:11;;;;;;;6.07;3.20;;;;;;;22.60;61.45;100528.84;4984698;28;20510;-74
2023/06/23 09:43:52;;;;;;;8.32;2.75;;;;;;;22.72;59.80;100522.69;4984473;28;20038;-74
2023/06/23 09:46:22;;;;;;;6.80;2.72;;;;;;;22.48;62.78;100530.34;4984934;28;20121;-74
2023/06/23 09:48:49;;;;;;;6.78;4.40;;;;;;;22.54;63.29;100532.97;4984403;28;20062;-74
2023/06/23 09:51:18;;;;;;;8.45;4.15;;;;;;;22.52;64.13;100538.81;4984316;28;20334;-74
2023/06/23 09:53:44;;;;;;;5.60;3.20;;;;;;;22.76;62.85;100531.97;4984690;28;20045;-73
2023/06/23 09:56:15;;;;;;;11.00;3.40;;;;;;;23.02;62.06;100536.66;4984201;28;20027;-74
2023/06/23 09:58:42;;;;;;;7.63;2.90;;;;;;;23.12;62.03;100538.28;4984192;28;20038;-74
2023/06/23 10:01:10;;;;;;;8.60;4.22;;;;;;;22.92;61.32;100540.63;4983981;28;20036;-73
2023/06/23 10:03:48;;;;;;;36.60;7.32;;;;;;;22.88;62.15;100541.59;4984649;28;20080;-74
2023/06/23 10:06:38;;;;;;;4.75;3.10;;;;;;;22.87;60.57;100546.34;4984676;28;20040;-73
2023/06/23 10:09:07;;;;;;;6.55;3.42;;;;;;;23.05;61.62;100549.91;4983818;28;20150;-72
2023/06/23 10:11:33;;;;;;;25.65;4.13;;;;;;;23.10;61.47;100546.13;4984373;28;20287;-74
2023/06/23 10:14:02;;;;;;;7.88;4.32;;;;;;;23.29;59.27;100542.16;4984106;28;20542;-73
2023/06/23 10:16:28;;;;;;;7.50;3.38;;;;;;;23.53;59.40;100540.75;4984129;28;20083;-74
2023/06/23 10:18:54;;;;;;;6.47;2.95;;;;;;;23.51;60.53;100548.63;4983971;28;20046;-73
2023/06/23 10:21:20;;;;;;;7.55;3.35;;;;;;;23.42;60.19;100554.19;4984016;28;20038;-74
2023/06/23 10:23:47;;;;;;;6.55;3.55;;;;;;;23.64;60.23;100552.31;4984385;28;20038;-73
2023/06/23 10:26:14;;;;;;;6.90;3.63;;;;;;;23.88;60.78;100550.88;4983345;28;20054;-73
2023/06/23 10:28:43;;;;;;;6.53;3.30;;;;;;;24.02;59.83;100554.22;4983408;28;20096;-73
2023/06/23 10:31:09;;;;;;;5.70;3.08;;;;;;;24.04;60.23;100551.13;4983822;28;20038;-74
2023/06/23 10:33:36;;;;;;;6.88;3.92;;;;;;;24.29;58.91;100548.47;4983699;28;20046;-73
2023/06/23 10:36:06;;;;;;;5.60;3.10;;;;;;;24.39;57.84;100547.25;4984282;28;20169;-78
2023/06/23 10:38:33;;;;;;;7.95;3.50;;;;;;;24.39;58.41;100544.47;4984241;28;20061;-77
2023/06/23 10:41:00;;;;;;;6.57;3.53;;;;;;;24.39;57.40;100546.47;4984188;28;20045;-77
2023/06/23 10:43:28;;;;;;;8.35;3.78;;;;;;;24.39;58.03;100541.69;4982949;28;20346;-80
2023/06/23 10:45:54;;;;;;;7.10;3.63;;;;;;;24.30;58.89;100549.31;4985292;28;20490;-79
2023/06/23 10:48:19;;;;;;;9.32;4.82;;;;;;;24.11;59.77;100545.81;4983797;28;20083;-79
2023/06/23 10:50:47;;;;;;;7.00;3.58;;;;;;;24.34;59.53;100550.25;4983605;28;20038;-77
2023/06/23 10:53:17;;;;;;;8.60;3.60;;;;;;;24.44;57.62;100544.28;4983719;28;20351;-79
2023/06/23 10:55:45;;;;;;;8.57;5.60;;;;;;;24.44;57.63;100549.03;4984282;28;20611;-83
2023/06/23 10:58:13;;;;;;;14.98;7.57;;;;;;;24.30;58.38;100549.31;4986543;28;20037;-83
2023/06/23 11:00:39;;;;;;;9.00;5.70;;;;;;;24.09;58.69;100550.06;4990381;28;20030;-83
2023/06/23 11:03:10;;;;;;;10.55;5.07;;;;;;;23.97;59.15;100564.72;4990977;28;20093;-83
2023/06/23 11:05:42;;;;;;;9.68;4.82;;;;;;;23.92;58.75;100556.59;4994252;28;20105;-84
2023/06/23 11:08:11;;;;;;;6.05;3.28;;;;;;;24.17;57.13;100554.78;4990448;28;20648;-84
2023/06/23 11:10:55;;;;;;;6.88;4.00;;;;;;;24.47;56.82;100543.56;4992716;28;20031;-84
2023/06/23 11:13:24;;;;;;;6.38;3.53;;;;;;;24.66;57.60;100549.81;4991978;28;20668;-84
2023/06/23 11:15:57;;;;;;;4.70;2.72;;;;;;;24.90;56.80;100546.28;4994555;28;20093;-84
2023/06/23 11:18:23;;;;;;;25.70;3.45;;;;;;;25.12;54.74;100543.47;4986658;28;20022;-84
2023/06/23 11:20:49;;;;;;;5.85;3.03;;;;;;;24.92;53.46;100540.34;4988888;28;20046;-84
2023/06/23 11:23:15;;;;;;;6.10;3.33;;;;;;;24.58;54.66;100548.72;4981623;28;20439;-83